sensor_id;sensor_type;location;lat;lon;timestamp;P1;durP1;ratioP1;P2;durP2;ratioP2
71351;SDS011;59159;51.652;4.864;2022-09-02T00:01:47;3.50;;;0.93;;
71351;SDS011;59159;51.652;4.864;2022-09-02T00:04:14;2.63;;;0.77;;
71351;SDS011;59159;51.652;4.864;2022-09-02T00:06:41;4.22;;;0.98;;
71351;SDS011;59159;51.652;4.864;2022-09-02T00:09:08;3.10;;;0.90;;
71351;SDS011;59159;51.652;4.864;2022-09-02T00:11:35;3.87;;;1.13;;
71351;SDS011;59159;51.652;4.864;2022-09-02T00:14:03;3.53;;;1.00;;
71351;SDS011;59159;51.652;4.864;2022-09-02T00:16:29;4.32;;;0.90;;
71351;SDS011;59159;51.652;4.864;2022-09-02T00:18:57;3.40;;;1.00;;
71351;SDS011;59159;51.652;4.864;2022-09-02T00:21:23;4.67;;;1.00;;
71351;SDS011;59159;51.652;4.864;2022-09-02T00:23:50;4.15;;;1.20;;
71351;SDS011;59159;51.652;4.864;2022-09-02T00:26:16;3.28;;;1.05;;
71351;SDS011;59159;51.652;4.864;2022-09-02T00:28:43;2.50;;;0.80;;
71351;SDS011;59159;51.652;4.864;2022-09-02T00:31:10;3.05;;;1.00;;
71351;SDS011;59159;51.652;4.864;2022-09-02T00:33:37;3.08;;;1.00;;
71351;SDS011;59159;51.652;4.864;2022-09-02T00:36:03;3.17;;;0.90;;
71351;SDS011;59159;51.652;4.864;2022-09-02T00:38:30;3.17;;;0.90;;
71351;SDS011;59159;51.652;4.864;2022-09-02T00:41:00;2.97;;;0.88;;
71351;SDS011;59159;51.652;4.864;2022-09-02T00:44:01;3.60;;;0.77;;
71351;SDS011;59159;51.652;4.864;2022-09-02T00:46:20;2.37;;;0.80;;
71351;SDS011;59159;51.652;4.864;2022-09-02T00:48:47;4.78;;;0.80;;
71351;SDS011;59159;51.652;4.864;2022-09-02T00:51:14;3.35;;;0.90;;
71351;SDS011;59159;51.652;4.864;2022-09-02T00:53:41;2.17;;;0.60;;
71351;SDS011;59159;51.652;4.864;2022-09-02T00:56:08;2.30;;;0.70;;
71351;SDS011;59159;51.652;4.864;2022-09-02T00:58:37;3.25;;;0.80;;
71351;SDS011;59159;51.652;4.864;2022-09-02T01:01:03;3.97;;;1.37;;
71351;SDS011;59159;51.652;4.864;2022-09-02T01:03:30;3.33;;;0.93;;
71351;SDS011;59159;51.652;4.864;2022-09-02T01:05:56;3.70;;;1.10;;
71351;SDS011;59159;51.652;4.864;2022-09-02T01:08:24;2.97;;;0.98;;
71351;SDS011;59159;51.652;4.864;2022-09-02T01:10:52;4.47;;;0.77;;
71351;SDS011;59159;51.652;4.864;2022-09-02T01:13:24;2.97;;;1.00;;
71351;SDS011;59159;51.652;4.864;2022-09-02T01:16:12;3.28;;;0.90;;
71351;SDS011;59159;51.652;4.864;2022-09-02T01:18:36;5.00;;;1.00;;
71351;SDS011;59159;51.652;4.864;2022-09-02T01:21:03;3.30;;;0.90;;
71351;SDS011;59159;51.652;4.864;2022-09-02T01:23:29;3.10;;;0.90;;
71351;SDS011;59159;51.652;4.864;2022-09-02T01:25:56;3.87;;;0.93;;
71351;SDS011;59159;51.652;4.864;2022-09-02T01:28:22;2.50;;;0.73;;
71351;SDS011;59159;51.652;4.864;2022-09-02T01:30:50;3.47;;;0.95;;
71351;SDS011;59159;51.652;4.864;2022-09-02T01:33:17;2.67;;;0.80;;
71351;SDS011;59159;51.652;4.864;2022-09-02T01:35:43;2.80;;;0.80;;
71351;SDS011;59159;51.652;4.864;2022-09-02T01:38:09;3.53;;;0.80;;
71351;SDS011;59159;51.652;4.864;2022-09-02T01:40:35;3.85;;;0.77;;
71351;SDS011;59159;51.652;4.864;2022-09-02T01:43:06;3.37;;;0.80;;
71351;SDS011;59159;51.652;4.864;2022-09-02T01:45:34;3.00;;;0.90;;
71351;SDS011;59159;51.652;4.864;2022-09-02T01:48:00;3.53;;;0.90;;
71351;SDS011;59159;51.652;4.864;2022-09-02T01:50:26;2.50;;;0.77;;
71351;SDS011;59159;51.652;4.864;2022-09-02T01:52:52;4.63;;;0.90;;
71351;SDS011;59159;51.652;4.864;2022-09-02T01:55:19;3.50;;;1.00;;
71351;SDS011;59159;51.652;4.864;2022-09-02T01:57:45;2.42;;;0.70;;
71351;SDS011;59159;51.652;4.864;2022-09-02T02:00:12;4.10;;;0.80;;
71351;SDS011;59159;51.652;4.864;2022-09-02T02:02:38;3.15;;;0.80;;
71351;SDS011;59159;51.652;4.864;2022-09-02T02:05:04;3.05;;;1.00;;
71351;SDS011;59159;51.652;4.864;2022-09-02T02:07:30;2.63;;;0.70;;
71351;SDS011;59159;51.652;4.864;2022-09-02T02:09:56;4.45;;;0.90;;
71351;SDS011;59159;51.652;4.864;2022-09-02T02:12:22;5.43;;;1.00;;
71351;SDS011;59159;51.652;4.864;2022-09-02T02:14:48;2.63;;;0.80;;
71351;SDS011;59159;51.652;4.864;2022-09-02T02:17:14;2.70;;;0.90;;
71351;SDS011;59159;51.652;4.864;2022-09-02T02:19:40;2.95;;;0.90;;
71351;SDS011;59159;51.652;4.864;2022-09-02T02:22:07;3.08;;;0.95;;
71351;SDS011;59159;51.652;4.864;2022-09-02T02:24:34;2.83;;;0.80;;
71351;SDS011;59159;51.652;4.864;2022-09-02T02:27:00;2.97;;;0.80;;
71351;SDS011;59159;51.652;4.864;2022-09-02T02:29:26;2.90;;;0.88;;
71351;SDS011;59159;51.652;4.864;2022-09-02T02:31:52;3.40;;;0.80;;
71351;SDS011;59159;51.652;4.864;2022-09-02T02:34:18;3.45;;;0.90;;
71351;SDS011;59159;51.652;4.864;2022-09-02T02:36:44;2.67;;;1.20;;
71351;SDS011;59159;51.652;4.864;2022-09-02T02:39:10;2.83;;;0.80;;
71351;SDS011;59159;51.652;4.864;2022-09-02T02:41:37;3.42;;;1.00;;
71351;SDS011;59159;51.652;4.864;2022-09-02T02:44:03;2.55;;;0.70;;
71351;SDS011;59159;51.652;4.864;2022-09-02T02:46:29;3.30;;;0.90;;
71351;SDS011;59159;51.652;4.864;2022-09-02T02:48:57;2.63;;;0.83;;
71351;SDS011;59159;51.652;4.864;2022-09-02T02:51:23;3.10;;;1.10;;
71351;SDS011;59159;51.652;4.864;2022-09-02T02:53:50;2.42;;;0.70;;
71351;SDS011;59159;51.652;4.864;2022-09-02T02:56:16;3.43;;;1.13;;
71351;SDS011;59159;51.652;4.864;2022-09-02T02:58:42;4.60;;;1.05;;
71351;SDS011;59159;51.652;4.864;2022-09-02T03:01:08;3.92;;;0.88;;
71351;SDS011;59159;51.652;4.864;2022-09-02T03:03:34;2.90;;;1.00;;
71351;SDS011;59159;51.652;4.864;2022-09-02T03:06:00;3.35;;;0.80;;
71351;SDS011;59159;51.652;4.864;2022-09-02T03:08:26;5.15;;;1.08;;
71351;SDS011;59159;51.652;4.864;2022-09-02T03:10:52;3.47;;;0.88;;
71351;SDS011;59159;51.652;4.864;2022-09-02T03:13:20;3.27;;;0.70;;
71351;SDS011;59159;51.652;4.864;2022-09-02T03:15:46;2.75;;;0.93;;
71351;SDS011;59159;51.652;4.864;2022-09-02T03:18:13;5.18;;;0.80;;
71351;SDS011;59159;51.652;4.864;2022-09-02T03:20:39;2.83;;;0.80;;
71351;SDS011;59159;51.652;4.864;2022-09-02T03:23:06;2.95;;;0.80;;
71351;SDS011;59159;51.652;4.864;2022-09-02T03:25:32;3.65;;;1.00;;
71351;SDS011;59159;51.652;4.864;2022-09-02T03:27:59;3.60;;;0.90;;
71351;SDS011;59159;51.652;4.864;2022-09-02T03:30:27;2.65;;;0.80;;
71351;SDS011;59159;51.652;4.864;2022-09-02T03:32:54;3.15;;;0.85;;
71351;SDS011;59159;51.652;4.864;2022-09-02T03:35:21;3.13;;;0.80;;
71351;SDS011;59159;51.652;4.864;2022-09-02T03:37:48;3.57;;;0.83;;
71351;SDS011;59159;51.652;4.864;2022-09-02T03:40:16;3.13;;;0.90;;
71351;SDS011;59159;51.652;4.864;2022-09-02T03:42:42;3.50;;;0.90;;
71351;SDS011;59159;51.652;4.864;2022-09-02T03:45:09;3.33;;;0.80;;
71351;SDS011;59159;51.652;4.864;2022-09-02T03:47:35;3.65;;;0.80;;
71351;SDS011;59159;51.652;4.864;2022-09-02T03:50:04;4.80;;;0.90;;
71351;SDS011;59159;51.652;4.864;2022-09-02T03:52:30;2.87;;;0.73;;
71351;SDS011;59159;51.652;4.864;2022-09-02T03:54:56;3.38;;;0.70;;
71351;SDS011;59159;51.652;4.864;2022-09-02T03:57:22;2.63;;;0.63;;
71351;SDS011;59159;51.652;4.864;2022-09-02T03:59:50;3.40;;;0.90;;
71351;SDS011;59159;51.652;4.864;2022-09-02T04:02:17;3.67;;;0.93;;
71351;SDS011;59159;51.652;4.864;2022-09-02T04:04:43;2.78;;;0.80;;
71351;SDS011;59159;51.652;4.864;2022-09-02T04:07:09;2.80;;;0.80;;
71351;SDS011;59159;51.652;4.864;2022-09-02T04:09:35;4.67;;;1.03;;
71351;SDS011;59159;51.652;4.864;2022-09-02T04:12:02;3.40;;;0.90;;
71351;SDS011;59159;51.652;4.864;2022-09-02T04:14:28;3.13;;;1.00;;
71351;SDS011;59159;51.652;4.864;2022-09-02T04:16:54;3.23;;;0.80;;
71351;SDS011;59159;51.652;4.864;2022-09-02T04:19:20;2.33;;;0.80;;
71351;SDS011;59159;51.652;4.864;2022-09-02T04:21:46;3.78;;;1.23;;
71351;SDS011;59159;51.652;4.864;2022-09-02T04:24:12;3.45;;;1.23;;
71351;SDS011;59159;51.652;4.864;2022-09-02T04:26:38;3.10;;;0.83;;
71351;SDS011;59159;51.652;4.864;2022-09-02T04:29:04;3.13;;;0.90;;
71351;SDS011;59159;51.652;4.864;2022-09-02T04:31:32;2.90;;;0.77;;
71351;SDS011;59159;51.652;4.864;2022-09-02T04:33:58;4.10;;;1.50;;
71351;SDS011;59159;51.652;4.864;2022-09-02T04:36:25;3.72;;;0.88;;
71351;SDS011;59159;51.652;4.864;2022-09-02T04:38:52;2.55;;;0.73;;
71351;SDS011;59159;51.652;4.864;2022-09-02T04:41:19;4.20;;;0.90;;
71351;SDS011;59159;51.652;4.864;2022-09-02T04:43:46;2.60;;;0.77;;
71351;SDS011;59159;51.652;4.864;2022-09-02T04:46:13;3.10;;;0.80;;
71351;SDS011;59159;51.652;4.864;2022-09-02T04:48:40;3.00;;;0.82;;
71351;SDS011;59159;51.652;4.864;2022-09-02T04:51:07;4.77;;;0.90;;
71351;SDS011;59159;51.652;4.864;2022-09-02T04:53:34;3.85;;;0.80;;
71351;SDS011;59159;51.652;4.864;2022-09-02T04:56:02;3.88;;;1.20;;
71351;SDS011;59159;51.652;4.864;2022-09-02T04:58:28;4.70;;;1.10;;
71351;SDS011;59159;51.652;4.864;2022-09-02T05:00:53;5.30;;;1.38;;
71351;SDS011;59159;51.652;4.864;2022-09-02T05:03:19;6.85;;;1.60;;
71351;SDS011;59159;51.652;4.864;2022-09-02T05:05:45;4.53;;;1.50;;
71351;SDS011;59159;51.652;4.864;2022-09-02T05:08:12;4.05;;;1.20;;
71351;SDS011;59159;51.652;4.864;2022-09-02T05:10:39;6.78;;;1.98;;
71351;SDS011;59159;51.652;4.864;2022-09-02T05:13:05;6.10;;;1.70;;
71351;SDS011;59159;51.652;4.864;2022-09-02T05:15:31;4.80;;;1.57;;
71351;SDS011;59159;51.652;4.864;2022-09-02T05:17:57;7.07;;;2.00;;
71351;SDS011;59159;51.652;4.864;2022-09-02T05:20:23;5.25;;;1.58;;
71351;SDS011;59159;51.652;4.864;2022-09-02T05:22:50;5.80;;;1.60;;
71351;SDS011;59159;51.652;4.864;2022-09-02T05:25:16;5.68;;;2.10;;
71351;SDS011;59159;51.652;4.864;2022-09-02T05:27:42;5.82;;;1.60;;
71351;SDS011;59159;51.652;4.864;2022-09-02T05:30:08;5.57;;;1.53;;
71351;SDS011;59159;51.652;4.864;2022-09-02T05:32:34;6.35;;;1.80;;
71351;SDS011;59159;51.652;4.864;2022-09-02T05:35:00;5.40;;;1.95;;
71351;SDS011;59159;51.652;4.864;2022-09-02T05:37:26;6.80;;;1.77;;
71351;SDS011;59159;51.652;4.864;2022-09-02T05:39:52;7.90;;;2.10;;
71351;SDS011;59159;51.652;4.864;2022-09-02T05:42:18;6.88;;;2.00;;
71351;SDS011;59159;51.652;4.864;2022-09-02T05:44:45;9.63;;;2.05;;
71351;SDS011;59159;51.652;4.864;2022-09-02T05:47:11;6.20;;;1.80;;
71351;SDS011;59159;51.652;4.864;2022-09-02T05:49:37;7.30;;;1.77;;
71351;SDS011;59159;51.652;4.864;2022-09-02T05:52:03;10.55;;;2.03;;
71351;SDS011;59159;51.652;4.864;2022-09-02T05:54:34;5.47;;;1.67;;
71351;SDS011;59159;51.652;4.864;2022-09-02T05:57:02;6.38;;;1.80;;
71351;SDS011;59159;51.652;4.864;2022-09-02T05:59:29;7.93;;;2.30;;
71351;SDS011;59159;51.652;4.864;2022-09-02T06:01:56;10.88;;;2.50;;
71351;SDS011;59159;51.652;4.864;2022-09-02T06:04:22;7.57;;;2.13;;
71351;SDS011;59159;51.652;4.864;2022-09-02T06:06:49;8.75;;;2.20;;
71351;SDS011;59159;51.652;4.864;2022-09-02T06:09:16;5.88;;;2.08;;
71351;SDS011;59159;51.652;4.864;2022-09-02T06:11:42;5.80;;;1.90;;
71351;SDS011;59159;51.652;4.864;2022-09-02T06:14:09;7.28;;;2.05;;
71351;SDS011;59159;51.652;4.864;2022-09-02T06:16:38;7.78;;;2.50;;
71351;SDS011;59159;51.652;4.864;2022-09-02T06:19:04;7.57;;;2.10;;
71351;SDS011;59159;51.652;4.864;2022-09-02T06:21:30;6.63;;;2.05;;
71351;SDS011;59159;51.652;4.864;2022-09-02T06:23:57;8.25;;;2.22;;
71351;SDS011;59159;51.652;4.864;2022-09-02T06:26:23;7.95;;;2.35;;
71351;SDS011;59159;51.652;4.864;2022-09-02T06:28:49;9.73;;;2.60;;
71351;SDS011;59159;51.652;4.864;2022-09-02T06:31:16;10.10;;;2.88;;
71351;SDS011;59159;51.652;4.864;2022-09-02T06:33:44;9.73;;;2.85;;
71351;SDS011;59159;51.652;4.864;2022-09-02T06:36:12;8.87;;;2.77;;
71351;SDS011;59159;51.652;4.864;2022-09-02T06:38:39;10.95;;;3.40;;
71351;SDS011;59159;51.652;4.864;2022-09-02T06:41:06;10.65;;;3.38;;
71351;SDS011;59159;51.652;4.864;2022-09-02T06:43:32;10.60;;;2.90;;
71351;SDS011;59159;51.652;4.864;2022-09-02T06:45:58;10.05;;;4.03;;
71351;SDS011;59159;51.652;4.864;2022-09-02T06:48:24;8.82;;;3.05;;
71351;SDS011;59159;51.652;4.864;2022-09-02T06:50:50;8.82;;;3.20;;
71351;SDS011;59159;51.652;4.864;2022-09-02T06:53:17;7.67;;;3.03;;
71351;SDS011;59159;51.652;4.864;2022-09-02T06:55:43;8.18;;;2.90;;
71351;SDS011;59159;51.652;4.864;2022-09-02T06:58:10;9.15;;;3.90;;
71351;SDS011;59159;51.652;4.864;2022-09-02T07:00:36;9.40;;;3.50;;
71351;SDS011;59159;51.652;4.864;2022-09-02T07:03:03;8.35;;;2.85;;
71351;SDS011;59159;51.652;4.864;2022-09-02T07:06:05;8.25;;;3.33;;
71351;SDS011;59159;51.652;4.864;2022-09-02T07:08:34;9.40;;;3.10;;
71351;SDS011;59159;51.652;4.864;2022-09-02T07:11:00;9.00;;;3.00;;
71351;SDS011;59159;51.652;4.864;2022-09-02T07:13:26;9.73;;;3.72;;
71351;SDS011;59159;51.652;4.864;2022-09-02T07:15:52;8.45;;;4.05;;
71351;SDS011;59159;51.652;4.864;2022-09-02T07:18:18;8.47;;;3.97;;
71351;SDS011;59159;51.652;4.864;2022-09-02T07:20:45;10.30;;;3.75;;
71351;SDS011;59159;51.652;4.864;2022-09-02T07:23:11;9.32;;;3.90;;
71351;SDS011;59159;51.652;4.864;2022-09-02T07:25:37;9.47;;;4.10;;
71351;SDS011;59159;51.652;4.864;2022-09-02T07:28:05;9.85;;;4.57;;
71351;SDS011;59159;51.652;4.864;2022-09-02T07:30:31;12.50;;;4.95;;
71351;SDS011;59159;51.652;4.864;2022-09-02T07:32:57;14.17;;;4.80;;
71351;SDS011;59159;51.652;4.864;2022-09-02T07:35:23;10.48;;;5.00;;
71351;SDS011;59159;51.652;4.864;2022-09-02T07:37:49;14.15;;;5.55;;
71351;SDS011;59159;51.652;4.864;2022-09-02T07:40:15;11.27;;;5.85;;
71351;SDS011;59159;51.652;4.864;2022-09-02T07:42:42;13.67;;;5.10;;
71351;SDS011;59159;51.652;4.864;2022-09-02T07:45:08;13.88;;;5.53;;
71351;SDS011;59159;51.652;4.864;2022-09-02T07:47:37;15.30;;;5.18;;
71351;SDS011;59159;51.652;4.864;2022-09-02T07:50:04;12.40;;;4.77;;
71351;SDS011;59159;51.652;4.864;2022-09-02T07:52:30;11.70;;;5.65;;
71351;SDS011;59159;51.652;4.864;2022-09-02T07:54:56;11.57;;;5.07;;
71351;SDS011;59159;51.652;4.864;2022-09-02T07:57:22;12.57;;;5.77;;
71351;SDS011;59159;51.652;4.864;2022-09-02T07:59:48;14.73;;;4.88;;
71351;SDS011;59159;51.652;4.864;2022-09-02T08:02:14;11.30;;;4.53;;
71351;SDS011;59159;51.652;4.864;2022-09-02T08:04:42;9.43;;;3.97;;
71351;SDS011;59159;51.652;4.864;2022-09-02T08:07:08;14.50;;;4.50;;
71351;SDS011;59159;51.652;4.864;2022-09-02T08:09:35;14.88;;;4.75;;
71351;SDS011;59159;51.652;4.864;2022-09-02T08:12:01;12.68;;;5.45;;
71351;SDS011;59159;51.652;4.864;2022-09-02T08:14:27;10.27;;;4.50;;
71351;SDS011;59159;51.652;4.864;2022-09-02T08:16:53;12.50;;;4.13;;
71351;SDS011;59159;51.652;4.864;2022-09-02T08:19:20;12.85;;;4.68;;
71351;SDS011;59159;51.652;4.864;2022-09-02T08:21:46;10.77;;;4.17;;
71351;SDS011;59159;51.652;4.864;2022-09-02T08:24:12;9.45;;;4.05;;
71351;SDS011;59159;51.652;4.864;2022-09-02T08:26:38;10.90;;;3.72;;
71351;SDS011;59159;51.652;4.864;2022-09-02T08:29:04;17.98;;;4.63;;
71351;SDS011;59159;51.652;4.864;2022-09-02T08:31:31;10.67;;;3.70;;
71351;SDS011;59159;51.652;4.864;2022-09-02T08:33:57;10.57;;;3.55;;
71351;SDS011;59159;51.652;4.864;2022-09-02T08:36:24;10.05;;;3.97;;
71351;SDS011;59159;51.652;4.864;2022-09-02T08:38:50;10.90;;;4.00;;
71351;SDS011;59159;51.652;4.864;2022-09-02T08:44:13;16.65;;;3.85;;
71351;SDS011;59159;51.652;4.864;2022-09-02T08:46:40;10.73;;;3.93;;
71351;SDS011;59159;51.652;4.864;2022-09-02T08:49:07;8.77;;;3.53;;
71351;SDS011;59159;51.652;4.864;2022-09-02T08:51:43;8.95;;;3.90;;
71351;SDS011;59159;51.652;4.864;2022-09-02T08:54:33;8.35;;;3.55;;
71351;SDS011;59159;51.652;4.864;2022-09-02T08:57:02;10.40;;;3.23;;
71351;SDS011;59159;51.652;4.864;2022-09-02T08:59:29;11.32;;;3.67;;
71351;SDS011;59159;51.652;4.864;2022-09-02T09:14:48;10.98;;;3.63;;
71351;SDS011;59159;51.652;4.864;2022-09-02T09:17:21;13.00;;;4.18;;
71351;SDS011;59159;51.652;4.864;2022-09-02T09:19:51;10.50;;;4.35;;
71351;SDS011;59159;51.652;4.864;2022-09-02T09:22:27;13.47;;;4.20;;
71351;SDS011;59159;51.652;4.864;2022-09-02T09:24:54;9.43;;;4.40;;
71351;SDS011;59159;51.652;4.864;2022-09-02T09:27:22;11.00;;;5.18;;
71351;SDS011;59159;51.652;4.864;2022-09-02T09:29:48;11.63;;;4.40;;
71351;SDS011;59159;51.652;4.864;2022-09-02T09:42:42;11.63;;;4.30;;
71351;SDS011;59159;51.652;4.864;2022-09-02T09:47:40;10.50;;;3.73;;
71351;SDS011;59159;51.652;4.864;2022-09-02T09:50:11;11.45;;;4.30;;
71351;SDS011;59159;51.652;4.864;2022-09-02T09:52:37;10.30;;;3.70;;
71351;SDS011;59159;51.652;4.864;2022-09-02T09:55:14;10.77;;;3.87;;
71351;SDS011;59159;51.652;4.864;2022-09-02T09:57:41;11.48;;;4.15;;
71351;SDS011;59159;51.652;4.864;2022-09-02T10:00:12;8.40;;;3.65;;
71351;SDS011;59159;51.652;4.864;2022-09-02T10:02:45;14.23;;;4.13;;
71351;SDS011;59159;51.652;4.864;2022-09-02T10:07:53;10.50;;;4.65;;
71351;SDS011;59159;51.652;4.864;2022-09-02T10:10:20;10.02;;;5.75;;
71351;SDS011;59159;51.652;4.864;2022-09-02T10:12:48;14.53;;;5.53;;
71351;SDS011;59159;51.652;4.864;2022-09-02T10:15:14;14.43;;;5.43;;
71351;SDS011;59159;51.652;4.864;2022-09-02T10:17:53;13.70;;;5.90;;
71351;SDS011;59159;51.652;4.864;2022-09-02T10:20:26;12.53;;;4.67;;
71351;SDS011;59159;51.652;4.864;2022-09-02T10:25:51;10.80;;;5.30;;
71351;SDS011;59159;51.652;4.864;2022-09-02T10:36:11;13.13;;;5.60;;
71351;SDS011;59159;51.652;4.864;2022-09-02T10:38:43;13.47;;;5.93;;
71351;SDS011;59159;51.652;4.864;2022-09-02T10:43:58;12.27;;;5.75;;
71351;SDS011;59159;51.652;4.864;2022-09-02T10:46:26;13.23;;;4.93;;
71351;SDS011;59159;51.652;4.864;2022-09-02T10:54:34;16.60;;;6.00;;
71351;SDS011;59159;51.652;4.864;2022-09-02T10:56:57;13.15;;;6.05;;
71351;SDS011;59159;51.652;4.864;2022-09-02T11:04:39;11.93;;;5.67;;
71351;SDS011;59159;51.652;4.864;2022-09-02T11:07:15;9.32;;;4.80;;
71351;SDS011;59159;51.652;4.864;2022-09-02T11:09:43;12.13;;;5.82;;
71351;SDS011;59159;51.652;4.864;2022-09-02T11:12:16;11.37;;;4.97;;
71351;SDS011;59159;51.652;4.864;2022-09-02T11:19:53;15.23;;;5.23;;
71351;SDS011;59159;51.652;4.864;2022-09-02T11:22:22;12.38;;;5.13;;
71351;SDS011;59159;51.652;4.864;2022-09-02T11:24:51;14.55;;;5.10;;
71351;SDS011;59159;51.652;4.864;2022-09-02T11:27:36;11.63;;;5.10;;
71351;SDS011;59159;51.652;4.864;2022-09-02T11:30:10;12.73;;;5.30;;
71351;SDS011;59159;51.652;4.864;2022-09-02T11:32:38;14.27;;;5.18;;
71351;SDS011;59159;51.652;4.864;2022-09-02T11:35:07;11.18;;;4.75;;
71351;SDS011;59159;51.652;4.864;2022-09-02T11:37:41;12.60;;;5.10;;
71351;SDS011;59159;51.652;4.864;2022-09-02T11:40:13;9.48;;;4.78;;
71351;SDS011;59159;51.652;4.864;2022-09-02T11:45:22;12.93;;;4.57;;
71351;SDS011;59159;51.652;4.864;2022-09-02T11:48:10;9.80;;;4.28;;
71351;SDS011;59159;51.652;4.864;2022-09-02T11:56:12;10.77;;;3.83;;
71351;SDS011;59159;51.652;4.864;2022-09-02T11:58:38;8.23;;;3.38;;
71351;SDS011;59159;51.652;4.864;2022-09-02T12:06:25;7.63;;;2.63;;
71351;SDS011;59159;51.652;4.864;2022-09-02T12:12:04;6.77;;;2.10;;
71351;SDS011;59159;51.652;4.864;2022-09-02T12:14:09;8.77;;;2.47;;
71351;SDS011;59159;51.652;4.864;2022-09-02T12:16:41;6.10;;;2.60;;
71351;SDS011;59159;51.652;4.864;2022-09-02T12:21:34;5.80;;;2.20;;
71351;SDS011;59159;51.652;4.864;2022-09-02T12:24:06;6.85;;;2.50;;
71351;SDS011;59159;51.652;4.864;2022-09-02T12:29:10;5.60;;;2.27;;
71351;SDS011;59159;51.652;4.864;2022-09-02T12:31:37;4.82;;;1.83;;
71351;SDS011;59159;51.652;4.864;2022-09-02T12:41:55;6.47;;;2.30;;
71351;SDS011;59159;51.652;4.864;2022-09-02T12:49:42;7.03;;;2.20;;
71351;SDS011;59159;51.652;4.864;2022-09-02T12:52:11;6.28;;;2.20;;
71351;SDS011;59159;51.652;4.864;2022-09-02T12:57:05;8.68;;;2.20;;
71351;SDS011;59159;51.652;4.864;2022-09-02T12:59:32;5.88;;;1.98;;
71351;SDS011;59159;51.652;4.864;2022-09-02T13:09:45;6.22;;;2.30;;
71351;SDS011;59159;51.652;4.864;2022-09-02T13:12:21;4.70;;;1.80;;
71351;SDS011;59159;51.652;4.864;2022-09-02T13:25:18;7.15;;;1.70;;
71351;SDS011;59159;51.652;4.864;2022-09-02T13:30:19;6.03;;;2.00;;
71351;SDS011;59159;51.652;4.864;2022-09-02T13:32:54;4.43;;;1.48;;
71351;SDS011;59159;51.652;4.864;2022-09-02T13:35:23;5.30;;;1.90;;
71351;SDS011;59159;51.652;4.864;2022-09-02T13:37:57;7.13;;;2.00;;
71351;SDS011;59159;51.652;4.864;2022-09-02T13:40:27;6.13;;;2.38;;
71351;SDS011;59159;51.652;4.864;2022-09-02T13:42:54;6.32;;;2.00;;
71351;SDS011;59159;51.652;4.864;2022-09-02T13:45:24;5.40;;;1.70;;
71351;SDS011;59159;51.652;4.864;2022-09-02T13:47:51;5.68;;;1.90;;
71351;SDS011;59159;51.652;4.864;2022-09-02T13:50:19;5.72;;;2.10;;
71351;SDS011;59159;51.652;4.864;2022-09-02T13:52:47;5.33;;;1.70;;
71351;SDS011;59159;51.652;4.864;2022-09-02T13:55:14;4.57;;;1.60;;
71351;SDS011;59159;51.652;4.864;2022-09-02T13:57:43;4.03;;;1.42;;
71351;SDS011;59159;51.652;4.864;2022-09-02T14:00:11;5.85;;;1.70;;
71351;SDS011;59159;51.652;4.864;2022-09-02T14:02:37;7.80;;;1.80;;
71351;SDS011;59159;51.652;4.864;2022-09-02T14:07:34;7.22;;;2.10;;
71351;SDS011;59159;51.652;4.864;2022-09-02T14:10:02;4.77;;;2.13;;
71351;SDS011;59159;51.652;4.864;2022-09-02T14:12:30;4.82;;;2.10;;
71351;SDS011;59159;51.652;4.864;2022-09-02T14:14:57;8.77;;;1.92;;
71351;SDS011;59159;51.652;4.864;2022-09-02T14:17:24;4.37;;;1.70;;
71351;SDS011;59159;51.652;4.864;2022-09-02T14:19:51;4.50;;;1.60;;
71351;SDS011;59159;51.652;4.864;2022-09-02T14:22:22;6.60;;;1.80;;
71351;SDS011;59159;51.652;4.864;2022-09-02T14:24:49;4.97;;;1.77;;
71351;SDS011;59159;51.652;4.864;2022-09-02T14:27:17;5.50;;;2.20;;
71351;SDS011;59159;51.652;4.864;2022-09-02T14:29:44;6.85;;;2.03;;
71351;SDS011;59159;51.652;4.864;2022-09-02T14:34:41;6.83;;;1.97;;
71351;SDS011;59159;51.652;4.864;2022-09-02T14:37:15;4.43;;;1.70;;
71351;SDS011;59159;51.652;4.864;2022-09-02T14:39:53;5.68;;;1.80;;
71351;SDS011;59159;51.652;4.864;2022-09-02T14:42:19;6.50;;;2.27;;
71351;SDS011;59159;51.652;4.864;2022-09-02T14:44:45;6.07;;;1.98;;
71351;SDS011;59159;51.652;4.864;2022-09-02T14:47:12;4.72;;;1.88;;
71351;SDS011;59159;51.652;4.864;2022-09-02T14:49:46;6.40;;;2.08;;
71351;SDS011;59159;51.652;4.864;2022-09-02T14:52:17;7.57;;;2.17;;
71351;SDS011;59159;51.652;4.864;2022-09-02T14:54:44;6.78;;;2.10;;
71351;SDS011;59159;51.652;4.864;2022-09-02T14:57:25;6.72;;;2.22;;
71351;SDS011;59159;51.652;4.864;2022-09-02T14:59:52;6.13;;;2.40;;
71351;SDS011;59159;51.652;4.864;2022-09-02T15:02:28;5.38;;;2.25;;
71351;SDS011;59159;51.652;4.864;2022-09-02T15:05:03;6.45;;;1.90;;
71351;SDS011;59159;51.652;4.864;2022-09-02T15:07:30;9.00;;;2.13;;
71351;SDS011;59159;51.652;4.864;2022-09-02T15:09:56;6.85;;;2.20;;
71351;SDS011;59159;51.652;4.864;2022-09-02T15:12:29;8.23;;;1.90;;
71351;SDS011;59159;51.652;4.864;2022-09-02T15:14:56;6.65;;;2.30;;
71351;SDS011;59159;51.652;4.864;2022-09-02T15:17:22;6.50;;;2.00;;
71351;SDS011;59159;51.652;4.864;2022-09-02T15:19:48;7.20;;;2.00;;
71351;SDS011;59159;51.652;4.864;2022-09-02T15:22:15;12.32;;;2.05;;
71351;SDS011;59159;51.652;4.864;2022-09-02T15:24:41;9.37;;;2.00;;
71351;SDS011;59159;51.652;4.864;2022-09-02T15:27:08;5.78;;;1.95;;
71351;SDS011;59159;51.652;4.864;2022-09-02T15:29:34;5.60;;;1.70;;
71351;SDS011;59159;51.652;4.864;2022-09-02T15:32:00;5.87;;;2.10;;
71351;SDS011;59159;51.652;4.864;2022-09-02T15:34:28;6.32;;;2.15;;
71351;SDS011;59159;51.652;4.864;2022-09-02T15:36:54;6.43;;;2.63;;
71351;SDS011;59159;51.652;4.864;2022-09-02T15:39:21;6.97;;;2.33;;
71351;SDS011;59159;51.652;4.864;2022-09-02T15:41:47;6.83;;;2.20;;
71351;SDS011;59159;51.652;4.864;2022-09-02T15:44:14;5.85;;;2.10;;
71351;SDS011;59159;51.652;4.864;2022-09-02T15:46:40;9.00;;;1.88;;
71351;SDS011;59159;51.652;4.864;2022-09-02T15:49:08;6.23;;;2.07;;
71351;SDS011;59159;51.652;4.864;2022-09-02T15:51:34;5.90;;;2.08;;
71351;SDS011;59159;51.652;4.864;2022-09-02T15:54:03;5.55;;;1.90;;
71351;SDS011;59159;51.652;4.864;2022-09-02T15:56:30;6.60;;;1.90;;
71351;SDS011;59159;51.652;4.864;2022-09-02T15:58:59;6.03;;;1.98;;
71351;SDS011;59159;51.652;4.864;2022-09-02T16:01:26;6.53;;;1.95;;
71351;SDS011;59159;51.652;4.864;2022-09-02T16:03:52;6.68;;;2.30;;
71351;SDS011;59159;51.652;4.864;2022-09-02T16:06:19;7.60;;;2.20;;
71351;SDS011;59159;51.652;4.864;2022-09-02T16:08:45;6.18;;;2.53;;
71351;SDS011;59159;51.652;4.864;2022-09-02T16:11:11;5.85;;;2.30;;
71351;SDS011;59159;51.652;4.864;2022-09-02T16:13:37;5.17;;;2.00;;
71351;SDS011;59159;51.652;4.864;2022-09-02T16:16:04;6.70;;;1.90;;
71351;SDS011;59159;51.652;4.864;2022-09-02T16:18:31;5.53;;;1.90;;
71351;SDS011;59159;51.652;4.864;2022-09-02T16:20:58;5.07;;;1.90;;
71351;SDS011;59159;51.652;4.864;2022-09-02T16:23:24;5.90;;;1.75;;
71351;SDS011;59159;51.652;4.864;2022-09-02T16:28:35;5.38;;;1.90;;
71351;SDS011;59159;51.652;4.864;2022-09-02T16:31:01;5.90;;;1.70;;
71351;SDS011;59159;51.652;4.864;2022-09-02T16:33:27;6.70;;;2.25;;
71351;SDS011;59159;51.652;4.864;2022-09-02T16:35:53;5.82;;;2.10;;
71351;SDS011;59159;51.652;4.864;2022-09-02T16:38:19;6.93;;;2.13;;
71351;SDS011;59159;51.652;4.864;2022-09-02T16:40:49;6.63;;;2.28;;
71351;SDS011;59159;51.652;4.864;2022-09-02T16:43:15;4.80;;;1.63;;
71351;SDS011;59159;51.652;4.864;2022-09-02T16:45:41;6.00;;;2.00;;
71351;SDS011;59159;51.652;4.864;2022-09-02T16:48:07;5.47;;;1.92;;
71351;SDS011;59159;51.652;4.864;2022-09-02T16:50:33;6.80;;;2.15;;
71351;SDS011;59159;51.652;4.864;2022-09-02T16:52:59;5.57;;;2.00;;
71351;SDS011;59159;51.652;4.864;2022-09-02T16:55:25;5.20;;;2.30;;